sensor_id;sensor_type;location;lat;lon;timestamp;temperature;humidity
70475;DHT22;57944;48.722;9.316;2022-11-13T00:01:10;1.70;99.90
70475;DHT22;57944;48.722;9.316;2022-11-13T00:04:00;1.60;99.90
70475;DHT22;57944;48.722;9.316;2022-11-13T00:06:49;1.60;99.90
70475;DHT22;57944;48.722;9.316;2022-11-13T00:09:43;1.50;99.90
70475;DHT22;57944;48.722;9.316;2022-11-13T00:12:32;1.40;99.90
70475;DHT22;57944;48.722;9.316;2022-11-13T00:15:24;1.30;99.90
70475;DHT22;57944;48.722;9.316;2022-11-13T00:18:13;1.20;99.90
70475;DHT22;57944;48.722;9.316;2022-11-13T00:21:06;1.00;99.90
70475;DHT22;57944;48.722;9.316;2022-11-13T00:23:55;1.00;99.90
70475;DHT22;57944;48.722;9.316;2022-11-13T00:26:44;1.10;99.90
70475;DHT22;57944;48.722;9.316;2022-11-13T00:29:32;1.10;99.90
70475;DHT22;57944;48.722;9.316;2022-11-13T00:32:24;1.10;99.90
70475;DHT22;57944;48.722;9.316;2022-11-13T00:35:13;1.10;99.90
70475;DHT22;57944;48.722;9.316;2022-11-13T00:38:02;1.10;99.90
70475;DHT22;57944;48.722;9.316;2022-11-13T00:40:51;1.10;99.90
70475;DHT22;57944;48.722;9.316;2022-11-13T00:43:39;1.10;99.90
70475;DHT22;57944;48.722;9.316;2022-11-13T00:46:28;1.10;99.90
70475;DHT22;57944;48.722;9.316;2022-11-13T00:49:19;1.20;99.90
70475;DHT22;57944;48.722;9.316;2022-11-13T00:52:08;1.20;99.90
70475;DHT22;57944;48.722;9.316;2022-11-13T00:54:57;1.10;99.90
70475;DHT22;57944;48.722;9.316;2022-11-13T00:57:45;1.10;99.90
70475;DHT22;57944;48.722;9.316;2022-11-13T01:00:34;1.10;99.90
70475;DHT22;57944;48.722;9.316;2022-11-13T01:03:22;1.20;99.90
70475;DHT22;57944;48.722;9.316;2022-11-13T01:06:17;1.30;99.90
70475;DHT22;57944;48.722;9.316;2022-11-13T01:09:08;1.40;99.90
70475;DHT22;57944;48.722;9.316;2022-11-13T01:11:56;1.40;99.90
70475;DHT22;57944;48.722;9.316;2022-11-13T01:14:45;1.40;99.90
70475;DHT22;57944;48.722;9.316;2022-11-13T01:17:34;1.50;99.90
70475;DHT22;57944;48.722;9.316;2022-11-13T01:20:23;1.40;99.90
70475;DHT22;57944;48.722;9.316;2022-11-13T01:23:15;1.50;99.90
70475;DHT22;57944;48.722;9.316;2022-11-13T01:26:06;1.60;99.90
70475;DHT22;57944;48.722;9.316;2022-11-13T01:28:57;1.60;99.90
70475;DHT22;57944;48.722;9.316;2022-11-13T01:31:47;1.60;99.90
70475;DHT22;57944;48.722;9.316;2022-11-13T01:34:36;1.50;99.90
70475;DHT22;57944;48.722;9.316;2022-11-13T01:37:25;1.50;99.90
70475;DHT22;57944;48.722;9.316;2022-11-13T01:40:19;1.30;99.90
70475;DHT22;57944;48.722;9.316;2022-11-13T01:43:23;1.20;99.90
70475;DHT22;57944;48.722;9.316;2022-11-13T01:46:26;1.10;99.90
70475;DHT22;57944;48.722;9.316;2022-11-13T01:49:27;1.00;99.90
70475;DHT22;57944;48.722;9.316;2022-11-13T01:52:21;0.90;99.90
70475;DHT22;57944;48.722;9.316;2022-11-13T01:55:19;0.80;99.90
70475;DHT22;57944;48.722;9.316;2022-11-13T01:58:09;0.80;99.90
70475;DHT22;57944;48.722;9.316;2022-11-13T02:00:59;0.70;99.90
70475;DHT22;57944;48.722;9.316;2022-11-13T02:03:49;0.70;99.90
70475;DHT22;57944;48.722;9.316;2022-11-13T02:06:41;0.60;99.90
70475;DHT22;57944;48.722;9.316;2022-11-13T02:09:36;0.50;99.90
70475;DHT22;57944;48.722;9.316;2022-11-13T02:12:32;0.50;99.90
70475;DHT22;57944;48.722;9.316;2022-11-13T02:15:24;0.60;99.90
70475;DHT22;57944;48.722;9.316;2022-11-13T02:18:18;0.60;99.90
70475;DHT22;57944;48.722;9.316;2022-11-13T02:21:19;0.70;99.90
70475;DHT22;57944;48.722;9.316;2022-11-13T02:24:26;0.80;99.90
70475;DHT22;57944;48.722;9.316;2022-11-13T02:27:22;1.00;99.90
70475;DHT22;57944;48.722;9.316;2022-11-13T02:30:17;1.10;99.90
70475;DHT22;57944;48.722;9.316;2022-11-13T02:33:23;1.20;99.90
70475;DHT22;57944;48.722;9.316;2022-11-13T02:36:20;1.20;99.90
70475;DHT22;57944;48.722;9.316;2022-11-13T02:39:12;1.20;99.90
70475;DHT22;57944;48.722;9.316;2022-11-13T02:42:03;1.20;99.90
70475;DHT22;57944;48.722;9.316;2022-11-13T02:44:52;1.30;99.90
70475;DHT22;57944;48.722;9.316;2022-11-13T02:47:40;1.30;99.90
70475;DHT22;57944;48.722;9.316;2022-11-13T02:50:29;1.40;99.90
70475;DHT22;57944;48.722;9.316;2022-11-13T02:53:19;1.40;99.90
70475;DHT22;57944;48.722;9.316;2022-11-13T02:56:08;1.20;99.90
70475;DHT22;57944;48.722;9.316;2022-11-13T02:58:59;1.30;99.90
70475;DHT22;57944;48.722;9.316;2022-11-13T03:01:48;1.30;99.90
70475;DHT22;57944;48.722;9.316;2022-11-13T03:04:37;1.20;99.90
70475;DHT22;57944;48.722;9.316;2022-11-13T03:07:46;1.20;99.90
70475;DHT22;57944;48.722;9.316;2022-11-13T03:10:35;1.40;99.90
70475;DHT22;57944;48.722;9.316;2022-11-13T03:13:24;1.30;99.90
70475;DHT22;57944;48.722;9.316;2022-11-13T03:16:16;1.20;99.90
70475;DHT22;57944;48.722;9.316;2022-11-13T03:19:05;1.20;99.90
70475;DHT22;57944;48.722;9.316;2022-11-13T03:21:53;1.40;99.90
70475;DHT22;57944;48.722;9.316;2022-11-13T03:24:42;1.40;99.90
70475;DHT22;57944;48.722;9.316;2022-11-13T03:27:31;1.50;99.90
70475;DHT22;57944;48.722;9.316;2022-11-13T03:30:20;1.60;99.90
70475;DHT22;57944;48.722;9.316;2022-11-13T03:33:11;1.60;99.90
70475;DHT22;57944;48.722;9.316;2022-11-13T03:36:00;1.60;99.90
70475;DHT22;57944;48.722;9.316;2022-11-13T03:38:49;1.80;99.90
70475;DHT22;57944;48.722;9.316;2022-11-13T03:41:39;1.90;99.90
70475;DHT22;57944;48.722;9.316;2022-11-13T03:44:28;2.00;99.90
70475;DHT22;57944;48.722;9.316;2022-11-13T03:47:16;2.00;99.90
70475;DHT22;57944;48.722;9.316;2022-11-13T03:50:08;2.10;99.90
70475;DHT22;57944;48.722;9.316;2022-11-13T03:52:57;2.00;99.90
70475;DHT22;57944;48.722;9.316;2022-11-13T03:55:46;1.90;99.90
70475;DHT22;57944;48.722;9.316;2022-11-13T03:58:35;2.00;99.90
70475;DHT22;57944;48.722;9.316;2022-11-13T04:01:25;2.00;99.90
70475;DHT22;57944;48.722;9.316;2022-11-13T04:04:13;2.00;99.90
70475;DHT22;57944;48.722;9.316;2022-11-13T04:07:05;1.90;99.90
70475;DHT22;57944;48.722;9.316;2022-11-13T04:09:54;1.80;99.90
70475;DHT22;57944;48.722;9.316;2022-11-13T04:12:42;1.70;99.90
70475;DHT22;57944;48.722;9.316;2022-11-13T04:15:31;1.60;99.90
70475;DHT22;57944;48.722;9.316;2022-11-13T04:18:20;1.70;99.90
70475;DHT22;57944;48.722;9.316;2022-11-13T04:21:09;1.60;99.90
70475;DHT22;57944;48.722;9.316;2022-11-13T04:24:00;1.50;99.90
70475;DHT22;57944;48.722;9.316;2022-11-13T04:26:48;1.40;99.90
70475;DHT22;57944;48.722;9.316;2022-11-13T04:29:37;1.30;99.90
70475;DHT22;57944;48.722;9.316;2022-11-13T04:32:26;1.10;99.90
70475;DHT22;57944;48.722;9.316;2022-11-13T04:35:15;0.90;99.90
70475;DHT22;57944;48.722;9.316;2022-11-13T04:38:04;0.70;99.90
70475;DHT22;57944;48.722;9.316;2022-11-13T04:40:55;0.60;99.90
70475;DHT22;57944;48.722;9.316;2022-11-13T04:43:56;0.50;99.90
70475;DHT22;57944;48.722;9.316;2022-11-13T04:46:45;0.50;99.90
70475;DHT22;57944;48.722;9.316;2022-11-13T04:49:33;0.40;99.90
70475;DHT22;57944;48.722;9.316;2022-11-13T04:52:22;0.50;99.90
70475;DHT22;57944;48.722;9.316;2022-11-13T04:55:11;0.40;99.90
70475;DHT22;57944;48.722;9.316;2022-11-13T04:58:03;0.60;99.90
70475;DHT22;57944;48.722;9.316;2022-11-13T05:00:51;0.80;99.90
70475;DHT22;57944;48.722;9.316;2022-11-13T05:03:40;0.90;99.90
70475;DHT22;57944;48.722;9.316;2022-11-13T05:06:28;1.00;99.90
70475;DHT22;57944;48.722;9.316;2022-11-13T05:09:17;1.10;99.90
70475;DHT22;57944;48.722;9.316;2022-11-13T05:12:07;1.20;99.90
70475;DHT22;57944;48.722;9.316;2022-11-13T05:14:59;1.40;99.90
70475;DHT22;57944;48.722;9.316;2022-11-13T05:17:48;1.40;99.90
70475;DHT22;57944;48.722;9.316;2022-11-13T05:20:38;1.30;99.90
70475;DHT22;57944;48.722;9.316;2022-11-13T05:23:27;1.40;99.90
70475;DHT22;57944;48.722;9.316;2022-11-13T05:26:16;1.30;99.90
70475;DHT22;57944;48.722;9.316;2022-11-13T05:29:05;1.40;99.90
70475;DHT22;57944;48.722;9.316;2022-11-13T05:31:57;1.50;99.90
70475;DHT22;57944;48.722;9.316;2022-11-13T05:34:46;1.60;99.90
70475;DHT22;57944;48.722;9.316;2022-11-13T05:37:35;1.60;99.90
70475;DHT22;57944;48.722;9.316;2022-11-13T05:40:24;1.70;99.90
70475;DHT22;57944;48.722;9.316;2022-11-13T05:43:13;1.80;99.90
70475;DHT22;57944;48.722;9.316;2022-11-13T05:46:03;1.90;99.90
70475;DHT22;57944;48.722;9.316;2022-11-13T05:48:58;1.80;99.90
70475;DHT22;57944;48.722;9.316;2022-11-13T05:51:47;1.80;99.90
70475;DHT22;57944;48.722;9.316;2022-11-13T05:54:36;1.80;99.90
70475;DHT22;57944;48.722;9.316;2022-11-13T05:57:25;1.80;99.90
70475;DHT22;57944;48.722;9.316;2022-11-13T06:00:15;1.70;99.90
70475;DHT22;57944;48.722;9.316;2022-11-13T06:03:05;1.60;99.90
70475;DHT22;57944;48.722;9.316;2022-11-13T06:05:57;1.50;99.90
70475;DHT22;57944;48.722;9.316;2022-11-13T06:08:47;1.60;99.90
70475;DHT22;57944;48.722;9.316;2022-11-13T06:11:36;1.70;99.90
70475;DHT22;57944;48.722;9.316;2022-11-13T06:14:25;1.90;99.90
70475;DHT22;57944;48.722;9.316;2022-11-13T06:17:14;1.90;99.90
70475;DHT22;57944;48.722;9.316;2022-11-13T06:20:03;1.90;99.90
70475;DHT22;57944;48.722;9.316;2022-11-13T06:22:57;1.90;99.90
70475;DHT22;57944;48.722;9.316;2022-11-13T06:25:46;1.80;99.90
70475;DHT22;57944;48.722;9.316;2022-11-13T06:28:35;1.70;99.90
70475;DHT22;57944;48.722;9.316;2022-11-13T06:31:26;1.80;99.90
70475;DHT22;57944;48.722;9.316;2022-11-13T06:34:17;1.80;99.90
70475;DHT22;57944;48.722;9.316;2022-11-13T06:37:06;1.90;99.90
70475;DHT22;57944;48.722;9.316;2022-11-13T06:39:57;2.00;99.90
70475;DHT22;57944;48.722;9.316;2022-11-13T06:42:46;2.10;99.90
70475;DHT22;57944;48.722;9.316;2022-11-13T06:45:34;2.30;99.90
70475;DHT22;57944;48.722;9.316;2022-11-13T06:48:24;2.30;99.90
70475;DHT22;57944;48.722;9.316;2022-11-13T06:51:15;2.30;99.90
70475;DHT22;57944;48.722;9.316;2022-11-13T06:54:05;2.30;99.90
70475;DHT22;57944;48.722;9.316;2022-11-13T06:56:57;2.30;99.90
70475;DHT22;57944;48.722;9.316;2022-11-13T06:59:45;2.40;99.90
70475;DHT22;57944;48.722;9.316;2022-11-13T07:02:34;2.50;99.90
70475;DHT22;57944;48.722;9.316;2022-11-13T07:05:23;2.50;99.90
70475;DHT22;57944;48.722;9.316;2022-11-13T07:08:13;2.40;99.90
70475;DHT22;57944;48.722;9.316;2022-11-13T07:11:02;2.30;99.90
70475;DHT22;57944;48.722;9.316;2022-11-13T07:13:54;2.40;99.90
70475;DHT22;57944;48.722;9.316;2022-11-13T07:16:43;2.60;99.90
70475;DHT22;57944;48.722;9.316;2022-11-13T07:19:52;2.70;99.90
70475;DHT22;57944;48.722;9.316;2022-11-13T07:22:40;2.60;99.90
70475;DHT22;57944;48.722;9.316;2022-11-13T07:25:29;2.70;99.90
70475;DHT22;57944;48.722;9.316;2022-11-13T07:28:19;2.70;99.90
70475;DHT22;57944;48.722;9.316;2022-11-13T07:31:11;2.80;99.90
70475;DHT22;57944;48.722;9.316;2022-11-13T07:34:01;2.80;99.90
70475;DHT22;57944;48.722;9.316;2022-11-13T07:36:50;2.80;99.90
70475;DHT22;57944;48.722;9.316;2022-11-13T07:39:39;2.80;99.90
70475;DHT22;57944;48.722;9.316;2022-11-13T07:42:27;2.90;99.90
70475;DHT22;57944;48.722;9.316;2022-11-13T07:45:16;3.00;99.90
70475;DHT22;57944;48.722;9.316;2022-11-13T07:48:08;3.20;99.90
70475;DHT22;57944;48.722;9.316;2022-11-13T07:50:59;3.10;99.90
70475;DHT22;57944;48.722;9.316;2022-11-13T07:53:48;3.20;99.90
70475;DHT22;57944;48.722;9.316;2022-11-13T07:56:37;3.30;99.90
70475;DHT22;57944;48.722;9.316;2022-11-13T07:59:26;3.40;99.90
70475;DHT22;57944;48.722;9.316;2022-11-13T08:02:15;3.40;99.90
70475;DHT22;57944;48.722;9.316;2022-11-13T08:05:14;3.50;99.90
70475;DHT22;57944;48.722;9.316;2022-11-13T08:08:03;3.70;99.90
70475;DHT22;57944;48.722;9.316;2022-11-13T08:10:51;3.80;99.90
70475;DHT22;57944;48.722;9.316;2022-11-13T08:13:40;4.10;99.90
70475;DHT22;57944;48.722;9.316;2022-11-13T08:16:29;4.20;99.90
70475;DHT22;57944;48.722;9.316;2022-11-13T08:19:18;4.20;99.90
70475;DHT22;57944;48.722;9.316;2022-11-13T08:22:09;4.10;99.90
70475;DHT22;57944;48.722;9.316;2022-11-13T08:24:58;4.00;99.90
70475;DHT22;57944;48.722;9.316;2022-11-13T08:27:47;4.20;99.90
70475;DHT22;57944;48.722;9.316;2022-11-13T08:30:36;4.50;99.90
70475;DHT22;57944;48.722;9.316;2022-11-13T08:33:25;4.50;99.90
70475;DHT22;57944;48.722;9.316;2022-11-13T08:36:14;4.70;99.90
70475;DHT22;57944;48.722;9.316;2022-11-13T08:39:05;4.80;99.90
70475;DHT22;57944;48.722;9.316;2022-11-13T08:41:55;5.00;99.90
70475;DHT22;57944;48.722;9.316;2022-11-13T08:44:44;4.90;99.90
70475;DHT22;57944;48.722;9.316;2022-11-13T08:47:32;4.80;99.90
70475;DHT22;57944;48.722;9.316;2022-11-13T08:50:21;4.70;99.90
70475;DHT22;57944;48.722;9.316;2022-11-13T08:53:10;4.60;99.90
70475;DHT22;57944;48.722;9.316;2022-11-13T08:56:02;4.60;99.90
70475;DHT22;57944;48.722;9.316;2022-11-13T08:58:51;4.40;99.90
70475;DHT22;57944;48.722;9.316;2022-11-13T09:01:40;4.60;99.90
70475;DHT22;57944;48.722;9.316;2022-11-13T09:04:28;4.80;99.90
70475;DHT22;57944;48.722;9.316;2022-11-13T09:07:17;5.00;99.90
70475;DHT22;57944;48.722;9.316;2022-11-13T09:10:11;5.10;99.90
70475;DHT22;57944;48.722;9.316;2022-11-13T09:13:04;5.00;99.90
70475;DHT22;57944;48.722;9.316;2022-11-13T09:15:56;5.00;99.90
70475;DHT22;57944;48.722;9.316;2022-11-13T09:18:47;5.10;99.90
70475;DHT22;57944;48.722;9.316;2022-11-13T09:21:37;5.30;99.90
70475;DHT22;57944;48.722;9.316;2022-11-13T09:24:25;5.10;99.90
70475;DHT22;57944;48.722;9.316;2022-11-13T09:27:14;5.20;99.90
70475;DHT22;57944;48.722;9.316;2022-11-13T09:30:07;5.20;99.90
70475;DHT22;57944;48.722;9.316;2022-11-13T09:32:58;5.40;99.90
70475;DHT22;57944;48.722;9.316;2022-11-13T09:35:48;5.60;99.90
70475;DHT22;57944;48.722;9.316;2022-11-13T09:38:37;6.00;99.90
70475;DHT22;57944;48.722;9.316;2022-11-13T09:41:30;6.10;99.90
70475;DHT22;57944;48.722;9.316;2022-11-13T09:44:29;6.10;99.90
70475;DHT22;57944;48.722;9.316;2022-11-13T09:47:29;6.00;99.90
70475;DHT22;57944;48.722;9.316;2022-11-13T09:50:22;6.20;99.90
70475;DHT22;57944;48.722;9.316;2022-11-13T09:53:14;6.20;99.90
70475;DHT22;57944;48.722;9.316;2022-11-13T09:56:13;6.30;99.90
70475;DHT22;57944;48.722;9.316;2022-11-13T09:59:15;6.60;99.90
70475;DHT22;57944;48.722;9.316;2022-11-13T10:02:15;6.80;99.90
70475;DHT22;57944;48.722;9.316;2022-11-13T10:05:20;6.90;99.90
70475;DHT22;57944;48.722;9.316;2022-11-13T10:08:14;7.20;99.90
70475;DHT22;57944;48.722;9.316;2022-11-13T10:11:10;7.30;99.90
70475;DHT22;57944;48.722;9.316;2022-11-13T10:14:14;7.60;99.90
70475;DHT22;57944;48.722;9.316;2022-11-13T10:17:12;7.70;99.90
70475;DHT22;57944;48.722;9.316;2022-11-13T10:20:11;7.80;99.90
70475;DHT22;57944;48.722;9.316;2022-11-13T10:23:08;7.90;99.90
70475;DHT22;57944;48.722;9.316;2022-11-13T10:26:12;8.40;99.90
70475;DHT22;57944;48.722;9.316;2022-11-13T10:29:09;8.70;99.90
70475;DHT22;57944;48.722;9.316;2022-11-13T10:32:16;8.70;99.90
70475;DHT22;57944;48.722;9.316;2022-11-13T10:35:26;9.00;99.90
70475;DHT22;57944;48.722;9.316;2022-11-13T10:38:30;8.50;99.90
70475;DHT22;57944;48.722;9.316;2022-11-13T10:41:22;8.60;99.90
70475;DHT22;57944;48.722;9.316;2022-11-13T10:44:19;8.80;99.90
70475;DHT22;57944;48.722;9.316;2022-11-13T10:47:18;8.90;99.90
70475;DHT22;57944;48.722;9.316;2022-11-13T10:50:32;8.60;99.90
70475;DHT22;57944;48.722;9.316;2022-11-13T10:53:21;7.70;99.90
70475;DHT22;57944;48.722;9.316;2022-11-13T10:56:21;7.20;99.90
70475;DHT22;57944;48.722;9.316;2022-11-13T10:59:17;6.70;99.90
70475;DHT22;57944;48.722;9.316;2022-11-13T11:02:17;6.40;99.90
70475;DHT22;57944;48.722;9.316;2022-11-13T11:05:17;6.10;99.90
70475;DHT22;57944;48.722;9.316;2022-11-13T11:08:13;5.90;99.90
70475;DHT22;57944;48.722;9.316;2022-11-13T11:11:07;5.80;99.90
70475;DHT22;57944;48.722;9.316;2022-11-13T11:14:24;5.80;99.90
70475;DHT22;57944;48.722;9.316;2022-11-13T11:17:16;5.90;99.90
70475;DHT22;57944;48.722;9.316;2022-11-13T11:20:24;5.60;99.90
70475;DHT22;57944;48.722;9.316;2022-11-13T11:23:32;5.40;99.90
70475;DHT22;57944;48.722;9.316;2022-11-13T11:26:31;5.30;99.90
70475;DHT22;57944;48.722;9.316;2022-11-13T11:29:27;5.30;99.90
70475;DHT22;57944;48.722;9.316;2022-11-13T11:32:31;5.50;99.90
70475;DHT22;57944;48.722;9.316;2022-11-13T11:35:30;5.70;99.90
70475;DHT22;57944;48.722;9.316;2022-11-13T11:38:33;5.70;99.90
70475;DHT22;57944;48.722;9.316;2022-11-13T11:41:31;5.80;99.90
70475;DHT22;57944;48.722;9.316;2022-11-13T11:44:35;6.00;99.90
70475;DHT22;57944;48.722;9.316;2022-11-13T11:47:28;6.10;99.90
70475;DHT22;57944;48.722;9.316;2022-11-13T11:50:26;6.20;99.90
70475;DHT22;57944;48.722;9.316;2022-11-13T11:53:33;6.30;99.90
70475;DHT22;57944;48.722;9.316;2022-11-13T11:56:33;6.20;99.90
70475;DHT22;57944;48.722;9.316;2022-11-13T11:59:42;6.20;99.90
70475;DHT22;57944;48.722;9.316;2022-11-13T12:03:09;6.20;99.90
70475;DHT22;57944;48.722;9.316;2022-11-13T12:06:19;6.30;99.90
70475;DHT22;57944;48.722;9.316;2022-11-13T12:09:24;6.30;99.90
70475;DHT22;57944;48.722;9.316;2022-11-13T12:12:21;6.40;99.90
70475;DHT22;57944;48.722;9.316;2022-11-13T12:15:27;6.40;99.90
70475;DHT22;57944;48.722;9.316;2022-11-13T12:18:28;6.40;99.90
70475;DHT22;57944;48.722;9.316;2022-11-13T12:21:26;6.50;99.90
70475;DHT22;57944;48.722;9.316;2022-11-13T12:24:42;6.60;99.90
70475;DHT22;57944;48.722;9.316;2022-11-13T12:27:50;6.60;99.90
70475;DHT22;57944;48.722;9.316;2022-11-13T12:30:52;6.70;99.90
70475;DHT22;57944;48.722;9.316;2022-11-13T12:33:56;6.80;99.90
70475;DHT22;57944;48.722;9.316;2022-11-13T12:36:53;6.90;99.90
70475;DHT22;57944;48.722;9.316;2022-11-13T12:39:50;7.00;99.90
70475;DHT22;57944;48.722;9.316;2022-11-13T12:42:47;7.10;99.90
70475;DHT22;57944;48.722;9.316;2022-11-13T12:45:49;7.30;99.90
70475;DHT22;57944;48.722;9.316;2022-11-13T12:48:41;7.50;99.90
70475;DHT22;57944;48.722;9.316;2022-11-13T12:51:38;7.60;99.90
70475;DHT22;57944;48.722;9.316;2022-11-13T12:54:29;7.60;99.90
70475;DHT22;57944;48.722;9.316;2022-11-13T12:57:24;7.60;99.90
70475;DHT22;57944;48.722;9.316;2022-11-13T13:00:24;7.70;99.90
70475;DHT22;57944;48.722;9.316;2022-11-13T13:03:24;7.70;99.90
70475;DHT22;57944;48.722;9.316;2022-11-13T13:06:43;7.90;99.90
70475;DHT22;57944;48.722;9.316;2022-11-13T13:09:50;8.00;99.90
70475;DHT22;57944;48.722;9.316;2022-11-13T13:12:56;8.00;99.90
70475;DHT22;57944;48.722;9.316;2022-11-13T13:15:54;8.00;99.90
70475;DHT22;57944;48.722;9.316;2022-11-13T13:18:45;8.00;99.90
70475;DHT22;57944;48.722;9.316;2022-11-13T13:21:42;8.10;99.90
70475;DHT22;57944;48.722;9.316;2022-11-13T13:24:33;8.10;99.90
70475;DHT22;57944;48.722;9.316;2022-11-13T13:27:24;8.20;99.90
70475;DHT22;57944;48.722;9.316;2022-11-13T13:30:22;8.30;99.90
70475;DHT22;57944;48.722;9.316;2022-11-13T13:33:19;8.30;99.90
70475;DHT22;57944;48.722;9.316;2022-11-13T13:36:20;8.40;99.90
70475;DHT22;57944;48.722;9.316;2022-11-13T13:39:28;8.40;99.90
70475;DHT22;57944;48.722;9.316;2022-11-13T13:42:36;8.60;99.90
70475;DHT22;57944;48.722;9.316;2022-11-13T13:45:49;8.60;99.90
70475;DHT22;57944;48.722;9.316;2022-11-13T13:48:44;8.50;99.90
70475;DHT22;57944;48.722;9.316;2022-11-13T13:51:38;8.50;99.90
70475;DHT22;57944;48.722;9.316;2022-11-13T13:54:31;8.70;99.90
70475;DHT22;57944;48.722;9.316;2022-11-13T13:57:22;8.60;99.90
70475;DHT22;57944;48.722;9.316;2022-11-13T14:00:15;8.70;99.90
70475;DHT22;57944;48.722;9.316;2022-11-13T14:03:18;8.60;99.90
70475;DHT22;57944;48.722;9.316;2022-11-13T14:06:18;8.60;99.90
70475;DHT22;57944;48.722;9.316;2022-11-13T14:09:09;8.50;99.90
70475;DHT22;57944;48.722;9.316;2022-11-13T14:12:06;8.50;99.90
70475;DHT22;57944;48.722;9.316;2022-11-13T14:15:25;8.50;99.90
70475;DHT22;57944;48.722;9.316;2022-11-13T14:18:18;8.40;99.90
70475;DHT22;57944;48.722;9.316;2022-11-13T14:21:12;8.30;99.90
70475;DHT22;57944;48.722;9.316;2022-11-13T14:24:09;8.30;99.90
70475;DHT22;57944;48.722;9.316;2022-11-13T14:27:06;8.30;99.90
70475;DHT22;57944;48.722;9.316;2022-11-13T14:30:01;8.20;99.90
70475;DHT22;57944;48.722;9.316;2022-11-13T14:32:55;8.30;99.90
70475;DHT22;57944;48.722;9.316;2022-11-13T14:35:53;8.50;99.90
70475;DHT22;57944;48.722;9.316;2022-11-13T14:38:46;8.40;99.90
70475;DHT22;57944;48.722;9.316;2022-11-13T14:41:38;8.30;99.90
70475;DHT22;57944;48.722;9.316;2022-11-13T14:44:33;8.30;99.90
70475;DHT22;57944;48.722;9.316;2022-11-13T14:47:24;8.30;99.90
70475;DHT22;57944;48.722;9.316;2022-11-13T14:50:24;8.20;99.90
70475;DHT22;57944;48.722;9.316;2022-11-13T14:53:25;8.20;99.90
70475;DHT22;57944;48.722;9.316;2022-11-13T14:56:16;8.10;99.90
70475;DHT22;57944;48.722;9.316;2022-11-13T14:59:11;7.90;99.90
70475;DHT22;57944;48.722;9.316;2022-11-13T15:02:04;7.70;99.90
70475;DHT22;57944;48.722;9.316;2022-11-13T15:04:52;7.60;99.90
70475;DHT22;57944;48.722;9.316;2022-11-13T15:07:43;7.50;99.90
70475;DHT22;57944;48.722;9.316;2022-11-13T15:10:35;7.50;99.90
70475;DHT22;57944;48.722;9.316;2022-11-13T15:13:24;7.60;99.90
70475;DHT22;57944;48.722;9.316;2022-11-13T15:16:16;7.60;99.90
70475;DHT22;57944;48.722;9.316;2022-11-13T15:19:12;7.50;99.90
70475;DHT22;57944;48.722;9.316;2022-11-13T15:22:03;7.50;99.90
70475;DHT22;57944;48.722;9.316;2022-11-13T15:25:14;7.40;99.90
70475;DHT22;57944;48.722;9.316;2022-11-13T15:28:07;7.50;99.90
70475;DHT22;57944;48.722;9.316;2022-11-13T15:30:58;7.40;99.90
70475;DHT22;57944;48.722;9.316;2022-11-13T15:33:47;7.20;99.90
70475;DHT22;57944;48.722;9.316;2022-11-13T15:36:36;7.20;99.90
70475;DHT22;57944;48.722;9.316;2022-11-13T15:39:24;7.00;99.90
70475;DHT22;57944;48.722;9.316;2022-11-13T15:42:15;6.80;99.90
70475;DHT22;57944;48.722;9.316;2022-11-13T15:45:12;6.80;99.90
70475;DHT22;57944;48.722;9.316;2022-11-13T15:48:03;6.70;99.90
70475;DHT22;57944;48.722;9.316;2022-11-13T15:50:54;6.60;99.90
70475;DHT22;57944;48.722;9.316;2022-11-13T15:53:43;6.60;99.90
70475;DHT22;57944;48.722;9.316;2022-11-13T15:56:34;6.50;99.90
70475;DHT22;57944;48.722;9.316;2022-11-13T15:59:23;6.40;99.90
70475;DHT22;57944;48.722;9.316;2022-11-13T16:02:14;6.50;99.90
70475;DHT22;57944;48.722;9.316;2022-11-13T16:05:03;6.50;99.90
70475;DHT22;57944;48.722;9.316;2022-11-13T16:07:53;6.50;99.90
70475;DHT22;57944;48.722;9.316;2022-11-13T16:10:42;6.40;99.90
70475;DHT22;57944;48.722;9.316;2022-11-13T16:13:31;6.20;99.90
70475;DHT22;57944;48.722;9.316;2022-11-13T16:16:22;6.00;99.90
70475;DHT22;57944;48.722;9.316;2022-11-13T16:19:21;5.90;99.90
70475;DHT22;57944;48.722;9.316;2022-11-13T16:22:16;5.60;99.90
70475;DHT22;57944;48.722;9.316;2022-11-13T16:25:15;5.50;99.90
70475;DHT22;57944;48.722;9.316;2022-11-13T16:28:09;5.50;99.90
70475;DHT22;57944;48.722;9.316;2022-11-13T16:31:02;5.50;99.90
70475;DHT22;57944;48.722;9.316;2022-11-13T16:33:51;5.50;99.90
70475;DHT22;57944;48.722;9.316;2022-11-13T16:36:43;5.30;99.90
70475;DHT22;57944;48.722;9.316;2022-11-13T16:39:33;5.20;99.90
70475;DHT22;57944;48.722;9.316;2022-11-13T16:42:22;5.20;99.90
70475;DHT22;57944;48.722;9.316;2022-11-13T16:45:15;5.20;99.90
70475;DHT22;57944;48.722;9.316;2022-11-13T16:48:04;5.00;99.90
70475;DHT22;57944;48.722;9.316;2022-11-13T16:50:59;4.80;99.90
70475;DHT22;57944;48.722;9.316;2022-11-13T16:53:50;4.70;99.90
70475;DHT22;57944;48.722;9.316;2022-11-13T16:56:40;4.70;99.90
70475;DHT22;57944;48.722;9.316;2022-11-13T16:59:29;4.70;99.90
70475;DHT22;57944;48.722;9.316;2022-11-13T17:02:18;4.60;99.90
70475;DHT22;57944;48.722;9.316;2022-11-13T17:05:10;4.40;99.90
70475;DHT22;57944;48.722;9.316;2022-11-13T17:08:00;4.50;99.90
70475;DHT22;57944;48.722;9.316;2022-11-13T17:10:57;4.50;99.90
70475;DHT22;57944;48.722;9.316;2022-11-13T17:13:48;4.60;99.90
70475;DHT22;57944;48.722;9.316;2022-11-13T17:16:37;4.60;99.90
70475;DHT22;57944;48.722;9.316;2022-11-13T17:19:26;4.50;99.90
70475;DHT22;57944;48.722;9.316;2022-11-13T17:22:14;4.40;99.90
70475;DHT22;57944;48.722;9.316;2022-11-13T17:25:04;4.40;99.90
70475;DHT22;57944;48.722;9.316;2022-11-13T17:27:56;4.30;99.90
70475;DHT22;57944;48.722;9.316;2022-11-13T17:30:45;4.10;99.90
70475;DHT22;57944;48.722;9.316;2022-11-13T17:33:38;3.90;99.90
70475;DHT22;57944;48.722;9.316;2022-11-13T17:36:27;3.90;99.90
70475;DHT22;57944;48.722;9.316;2022-11-13T17:39:15;4.10;99.90
70475;DHT22;57944;48.722;9.316;2022-11-13T17:42:04;4.20;99.90
70475;DHT22;57944;48.722;9.316;2022-11-13T17:44:55;4.00;99.90
70475;DHT22;57944;48.722;9.316;2022-11-13T17:47:44;4.00;99.90
70475;DHT22;57944;48.722;9.316;2022-11-13T17:50:34;3.90;99.90
70475;DHT22;57944;48.722;9.316;2022-11-13T17:53:23;3.80;99.90
70475;DHT22;57944;48.722;9.316;2022-11-13T17:56:12;3.70;99.90
70475;DHT22;57944;48.722;9.316;2022-11-13T17:59:04;3.70;99.90
70475;DHT22;57944;48.722;9.316;2022-11-13T18:01:58;3.70;99.90
70475;DHT22;57944;48.722;9.316;2022-11-13T18:04:47;3.70;99.90
70475;DHT22;57944;48.722;9.316;2022-11-13T18:07:36;3.70;99.90
70475;DHT22;57944;48.722;9.316;2022-11-13T18:10:24;3.70;99.90
70475;DHT22;57944;48.722;9.316;2022-11-13T18:13:16;3.60;99.90
70475;DHT22;57944;48.722;9.316;2022-11-13T18:16:06;3.70;99.90
70475;DHT22;57944;48.722;9.316;2022-11-13T18:18:58;3.70;99.90
70475;DHT22;57944;48.722;9.316;2022-11-13T18:21:51;3.80;99.90
70475;DHT22;57944;48.722;9.316;2022-11-13T18:24:39;3.80;99.90
70475;DHT22;57944;48.722;9.316;2022-11-13T18:27:28;3.80;99.90
70475;DHT22;57944;48.722;9.316;2022-11-13T18:30:17;3.60;99.90